• Join FlightAware (Why Join?)
  • Login
  • US Flag 
05:46PM EDT


 

Airport Tracker/Info


-or-


 

Live Flight TrackerFlight Track Log ✈ CSJ915 ✈ 03/Jun/2013 ✈ KLCK - CYHM

Flight Track Log - Related Links

Times and Time Zones

All times are in EDT time to prevent confusion due to time zone crossing. See the CSJ915 flight status page for this flight to view local times or setup timezone preferences in your user account.

Time Position Orientation Groundspeed Altitude Reporting Facility
EDT Latitude Longitude Course Direction KTS MPH feet Rate Location/Type
08:50PM 39.8242 -82.9169 52° Northeast 77 89 1,300  Level Indianapolis Center
08:51PM 39.8383 -82.8942 51° Northeast 83 96 2,000 780 Climbing Indianapolis Center
08:52PM 39.8564 -82.8719 43° Northeast 102 117 2,900 780 Climbing Indianapolis Center
08:53PM 39.8725 -82.8517 44° Northeast 87 100 3,600 780 Climbing Indianapolis Center
08:54PM 39.8906 -82.8303 42° Northeast 88 101 4,400 720 Climbing Indianapolis Center
08:55PM 39.9103 -82.8075 42° Northeast 91 105 5,100 720 Climbing Indianapolis Center
08:56PM 39.9289 -82.7842 44° Northeast 92 106 5,900 660 Climbing Indianapolis Center
08:57PM 39.9475 -82.7592 46° Northeast 94 108 6,500 600 Climbing Indianapolis Center
08:58PM 39.9678 -82.7353 42° Northeast 98 113 7,200 600 Climbing Indianapolis Center
08:59PM 39.9867 -82.7075 48° Northeast 102 117 7,800 540 Climbing Indianapolis Center
09:00PM 40.0069 -82.6833 42° Northeast 99 114 8,400 540 Climbing Indianapolis Center
09:01PM 40.0272 -82.6597 42° Northeast 98 113 9,000 540 Climbing Indianapolis Center
09:02PM 40.0503 -82.6289 46° Northeast 101 116 9,600 480 Climbing Indianapolis Center
09:03PM 40.0700 -82.6028 45° Northeast 101 116 10,100 480 Climbing Indianapolis Center
09:04PM 40.0939 -82.5833 32° Northeast 101 116 10,600 420 Climbing Indianapolis Center
09:05PM 40.1178 -82.5622 34° Northeast 104 120 11,000 180 Climbing Indianapolis Center
09:06PM 40.1489 -82.5372 32° Northeast 131 151 11,000  Level Indianapolis Center
09:07PM 40.1842 -82.5069 33° Northeast 151 174 11,100  Climbing Indianapolis Center
09:08PM 40.2208 -82.4747 34° Northeast 158 182 11,000 -60 Descending Indianapolis Center
09:09PM 40.2569 -82.4439 33° Northeast 160 184 11,000  Level Indianapolis Center
09:10PM 40.2956 -82.4125 32° Northeast 161 185 11,000  Level Indianapolis Center
09:11PM 40.3328 -82.3828 31° Northeast 157 181 11,000  Level Indianapolis Center
09:12PM 40.3775 -82.3472 31° Northeast 159 183 11,000  Level Indianapolis Center
09:13PM 40.4167 -82.3169 30° Northeast 163 188 11,000  Level Indianapolis Center
09:14PM 40.4550 -82.2856 32° Northeast 162 186 11,000  Level Indianapolis Center
09:15PM 40.4939 -82.2539 32° Northeast 164 189 11,000  Level Indianapolis Center
09:16PM 40.5311 -82.2206 34° Northeast 161 185 11,000  Level Indianapolis Center
09:17PM 40.5686 -82.1886 33° Northeast 161 185 11,000  Level Indianapolis Center
09:18PM 40.6069 -82.1569 32° Northeast 161 185 11,000  Level Indianapolis Center
09:20PM 40.6436 -82.1242 34° Northeast 158 182 11,000  Level Indianapolis Center
09:20PM 40.6553 -82.1131 36° Northeast 150 173 11,000  Level Cleveland Center
09:21PM 40.6953 -82.0811 31° Northeast 150 173 11,000  Level Cleveland Center
09:22PM 40.7247 -82.0597 29° Northeast 156 180 11,000  Level Cleveland Center
09:22PM 40.7331 -82.0517 36° Northeast 150 173 11,000  Level Cleveland Center
09:22PM 40.7542 -82.0386 25° Northeast 157 181 11,000  Level Cleveland Center
09:23PM 40.7689 -82.0197 44° Northeast 150 173 11,000  Level Cleveland Center
09:24PM 40.7942 -82.0039 25° Northeast 155 178 11,000  Level Cleveland Center
09:24PM 40.8069 -81.9903 39° Northeast 150 173 11,000  Level Cleveland Center
09:24PM 40.8236 -81.9825 19° North 155 178 11,000  Level Cleveland Center
09:25PM 40.8428 -81.9581 44° Northeast 150 173 11,000  Level Cleveland Center
09:25PM 40.8594 -81.9475 26° Northeast 156 180 11,000  Level Cleveland Center
09:26PM 40.8783 -81.9314 33° Northeast 150 173 11,000  Level Cleveland Center
09:26PM 40.8994 -81.9153 30° Northeast 155 178 11,000  Level Cleveland Center
09:27PM 40.9164 -81.8992 36° Northeast 150 173 11,000  Level Cleveland Center
09:27PM 40.9353 -81.8858 28° Northeast 158 182 11,000  Level Cleveland Center
09:28PM 40.9542 -81.8697 33° Northeast 150 173 11,000  Level Cleveland Center
09:28PM 40.9753 -81.8536 30° Northeast 157 181 11,000  Level Cleveland Center
09:29PM 40.9900 -81.8375 40° Northeast 150 173 11,000  Level Cleveland Center
09:30PM 41.0278 -81.8053 33° Northeast 155 178 11,000  Level Cleveland Center
09:30PM 41.0447 -81.7917 31° Northeast 161 185 11,000  Level Cleveland Center
09:31PM 41.0614 -81.7783 31° Northeast 155 178 11,000  Level Cleveland Center
09:32PM 41.0908 -81.7542 32° Northeast 159 183 11,000  Level Cleveland Center
09:33PM 41.1289 -81.7217 33° Northeast 157 181 11,000  Level Cleveland Center
09:34PM 41.1667 -81.6892 33° Northeast 158 182 11,000  Level Cleveland Center
09:35PM 41.2025 -81.6594 32° Northeast 158 182 11,000  Level Cleveland Center
09:36PM 41.2381 -81.6325 30° Northeast 161 185 11,000  Level Cleveland Center
09:37PM 41.2758 -81.5972 35° Northeast 162 186 11,100  Climbing Cleveland Center
09:38PM 41.3178 -81.5672 28° Northeast 162 186 11,000 -60 Descending Cleveland Center
09:38PM 41.3494 -81.5403 33° Northeast 162 186 11,000  Level Cleveland Center
09:39PM 41.3914 -81.5075 30° Northeast 160 184 11,000  Level Cleveland Center
09:40PM 41.4250 -81.4719 38° Northeast 162 186 11,000  Level Cleveland Center
09:41PM 41.4439 -81.4611 23° Northeast 173 199 11,000 60 Level Cleveland Center
09:42PM 41.4817 -81.4286 33° Northeast 181 208 11,100  Climbing Cleveland Center
09:43PM 41.5214 -81.3958 32° Northeast 165 190 11,000 -60 Descending Cleveland Center
09:44PM 41.5569 -81.3628 35° Northeast 159 183 11,000  Level Cleveland Center
09:45PM 41.5947 -81.3300 33° Northeast 159 183 11,000  Level Cleveland Center
09:46PM 41.6306 -81.2997 32° Northeast 159 183 11,000  Level Cleveland Center
09:47PM 41.6681 -81.2669 33° Northeast 159 183 11,000  Level Cleveland Center
09:48PM 41.7081 -81.2339 32° Northeast 159 183 11,000  Level Cleveland Center
09:49PM 41.7436 -81.2008 35° Northeast 153 176 11,000  Level Cleveland Center
09:50PM 41.7814 -81.1706 31° Northeast 153 176 11,000  Level Cleveland Center
09:51PM 41.8189 -81.1347 35° Northeast 153 176 11,000  Level Cleveland Center
09:52PM 41.8567 -81.1072 28° Northeast 153 176 11,000  Level Cleveland Center
09:53PM 41.8942 -81.0769 31° Northeast 153 176 11,000  Level Cleveland Center
09:54PM 41.9319 -81.0436 33° Northeast 153 176 11,000  Level Cleveland Center
09:55PM 41.9717 -81.0075 34° Northeast 163 188 11,000  Level Cleveland Center
09:56PM 42.0094 -80.9744 33° Northeast 163 188 11,000  Level Cleveland Center
09:57PM 42.0447 -80.9411 35° Northeast 163 188 11,000  Level Cleveland Center
09:58PM 42.0844 -80.9078 32° Northeast 168 193 11,000  Level Cleveland Center
09:59PM 42.1222 -80.8742 33° Northeast 168 193 11,000  Level Cleveland Center
10:00PM 42.1597 -80.8408 33° Northeast 163 188 11,000  Level Cleveland Center
10:01PM 42.1994 -80.8044 34° Northeast 163 188 11,000  Level Cleveland Center
10:02PM 42.2369 -80.7711 33° Northeast 163 188 11,000  Level Cleveland Center
10:03PM 42.2747 -80.7375 33° Northeast 163 188 11,000  Level Cleveland Center
10:04PM 42.3164 -80.7039 31° Northeast 158 182 11,000  Level Cleveland Center
10:05PM 42.3539 -80.6703 34° Northeast 158 182 11,000  Level Cleveland Center
10:06PM 42.3914 -80.6339 36° Northeast 158 182 11,000  Level Cleveland Center
10:07PM 42.4289 -80.6028 31° Northeast 158 182 11,000  Level Cleveland Center
10:08PM 42.4686 -80.5633 36° Northeast 165 190 11,000  Level Cleveland Center
10:09PM 42.5061 -80.5353 29° Northeast 165 190 11,000  Level Cleveland Center
10:10PM 42.5414 -80.4986 37° Northeast 160 184 11,000  Level Cleveland Center
10:11PM 42.5789 -80.4647 34° Northeast 160 184 11,000  Level Cleveland Center
10:12PM 42.6144 -80.4308 35° Northeast 160 184 11,000 -180 Level Cleveland Center
10:13PM 42.6497 -80.4025 31° Northeast 155 178 10,700 -540 Descending Cleveland Center
10:14PM 42.6933 -80.3686 30° Northeast 170 196 10,000 -780 Descending Cleveland Center
10:15PM 42.7433 -80.3231 34° Northeast 185 213 9,200 -840 Descending Cleveland Center